Estación Meteorológica Peña el Pijo (Robertgarden) [ 11/12/18 21:08:45 CET ]

Fecha Hora Presion(HPa) Temp (°C) Humedad % Rocio (°C) Viento ( m/s) Direccion Lluvia 1Hora(mm) Lluvia 24H(mm) LLuvia Total(mm)
2018-May-03 01:01:40 1006.400 8.5 63 1.8         205.12
2018-May-03 02:01:55 1006.300 8.5 61 1.4         205.12
2018-May-03 03:02:09 1005.700 8.9 59 1.3         205.12
2018-May-03 04:01:52 1005.400 8.3 58 0.5         205.12
2018-May-03 05:01:41 1005.500 7.3 61 0.3         205.12
2018-May-03 06:01:44 1005.100 6.1 63 -0.4         205.12
2018-May-03 07:01:35 1005.000 5.5 66 -0.4         205.12
2018-May-03 08:01:34 1005.100 6.4 67 0.7         205.12
2018-May-03 09:01:35 1004.900 11.8 55 3.0         205.12
2018-May-03 10:01:27 1004.800 14.8 48 3.9         205.12
2018-May-03 11:01:42 1004.600 17.7 41 4.2 0.4 NE     205.12
2018-May-03 12:01:39 1004.400 17.3 42 4.2         205.12
2018-May-03 13:01:28 1004.300 17.5 41 4.1         205.12
2018-May-03 14:01:50 1003.900 16.8 44 4.4         205.12
2018-May-03 15:01:55 1003.200 18.1 39 3.9 0.4 ESE     205.12
2018-May-03 16:01:43 1002.300 21.4 33 4.4         205.12
2018-May-03 17:01:43 1002.200 20.9 34 4.3         205.12
2018-May-03 18:02:04 1002.500 16.9 38 2.4         205.12
2018-May-03 19:01:59 1002.000 17.3 41 3.9         205.12
2018-May-03 20:01:43 1002.500 16.8 41 3.4 4.5 N     205.12
2018-May-03 21:01:39 1002.700 14.4 47 3.2         205.12
2018-May-03 22:01:51 1003.500 13.3 51 3.4         205.12
2018-May-03 23:02:07 1004.000 11.5 56 3.0         205.12

Temperatura Máxima:21°    Temperatura Mínima:
Presión Máxima:1006.400 Hpa    Presión Mínima:1002.000 Hpa


Volver